Terminal Aerodrome Forecast
Issued by NWS Lubbock, TX

Home | Current Version | Previous Version | Text Only | Print | Product List | Glossary On
Versions: 1 2 3 4 5 6 7 8 9 10 11 12
000
FTUS44 KLUB 291124
TAFLBB
TAF
KLBB 291124Z 2912/3012 02011KT P6SM SCT250
     FM291500 03016G24KT P6SM BKN250
     FM300000 06008KT P6SM OVC100=

USA.gov is the U.S. government's official web portal to all federal, state and local government web resources and services.